createdAt,value
2023-03-25T00:10:39.607Z,11.21
2023-03-25T00:25:44.968Z,13.62
2023-03-25T00:40:48.692Z,12.83
2023-03-25T00:55:51.350Z,11.16
2023-03-25T01:10:54.484Z,13.57
2023-03-25T01:25:57.393Z,12.54
2023-03-25T01:40:59.958Z,13.56
2023-03-25T01:56:06.819Z,12.03
2023-03-25T02:11:10.776Z,13.44
2023-03-25T02:26:19.173Z,11.79
2023-03-25T02:41:56.502Z,13.10
2023-03-25T02:57:01.020Z,11.50
2023-03-25T03:12:22.961Z,12.95
2023-03-25T03:27:34.131Z,11.41
2023-03-25T03:42:45.257Z,12.53
2023-03-25T03:58:02.583Z,10.97
2023-03-25T04:13:10.413Z,12.47
2023-03-25T04:28:13.706Z,11.04
2023-03-25T04:43:17.662Z,12.35
2023-03-25T04:58:20.570Z,10.74
2023-03-25T05:13:23.912Z,12.33
2023-03-25T05:28:26.851Z,11.26
2023-03-25T05:43:35.710Z,13.71
2023-03-25T05:58:38.622Z,14.97
2023-03-25T06:13:42.341Z,18.47
2023-03-25T06:28:46.281Z,21.47
2023-03-25T06:43:49.421Z,24.07
2023-03-25T06:58:52.080Z,21.74
2023-03-25T07:13:55.271Z,18.59
2023-03-25T07:28:58.153Z,16.41
2023-03-25T07:44:01.014Z,15.02
2023-03-25T07:59:04.764Z,14.17
2023-03-25T08:14:07.874Z,13.90
2023-03-25T08:29:11.658Z,14.24
2023-03-25T08:44:14.765Z,15.32
2023-03-25T08:59:18.099Z,16.17
2023-03-25T09:14:20.975Z,15.89
2023-03-25T09:29:23.517Z,15.27
2023-03-25T09:44:31.110Z,15.00
2023-03-25T09:59:41.965Z,15.30
2023-03-25T10:15:04.066Z,15.91
2023-03-25T10:30:09.874Z,16.31
2023-03-25T10:45:15.699Z,16.36
2023-03-25T11:00:26.396Z,17.79
2023-03-25T11:15:35.227Z,18.63
2023-03-25T11:30:51.622Z,19.14
2023-03-25T11:45:54.905Z,19.23
2023-03-25T12:01:03.977Z,19.60
2023-03-25T12:16:41.481Z,20.06
2023-03-25T12:32:09.067Z,18.41
2023-03-25T12:47:24.917Z,16.44
2023-03-25T13:02:54.418Z,14.58
2023-03-25T13:18:05.841Z,15.36
2023-03-25T13:33:16.225Z,15.82
2023-03-25T13:48:31.614Z,15.07
2023-03-25T14:04:15.840Z,14.52
2023-03-25T14:19:26.861Z,13.63
2023-03-25T14:34:29.846Z,13.67
2023-03-25T14:50:01.272Z,14.00
2023-03-25T15:05:15.584Z,13.79
2023-03-25T15:20:24.113Z,13.41
2023-03-25T15:35:33.004Z,12.77
2023-03-25T15:50:54.826Z,12.09
2023-03-25T16:06:03.111Z,11.90
2023-03-25T16:21:05.948Z,14.29
2023-03-25T16:36:11.682Z,13.32
2023-03-25T16:51:37.817Z,11.85
2023-03-25T17:06:43.380Z,13.02
2023-03-25T17:22:18.694Z,11.64
2023-03-25T17:37:25.137Z,13.01
2023-03-25T17:52:29.546Z,11.72
2023-03-25T18:07:34.742Z,12.73
2023-03-25T18:22:37.348Z,11.53
2023-03-25T18:37:41.668Z,12.75
2023-03-25T18:52:45.579Z,11.48
2023-03-25T19:07:49.408Z,13.00
2023-03-25T19:22:52.898Z,11.22
2023-03-25T19:37:57.100Z,10.50
2023-03-25T19:53:01.968Z,12.58
2023-03-25T20:08:05.071Z,11.98
2023-03-25T20:23:08.936Z,10.37
2023-03-25T20:38:11.672Z,12.39
2023-03-25T20:53:14.514Z,11.19
2023-03-25T21:08:17.020Z,9.81
2023-03-25T21:23:20.664Z,9.49
2023-03-25T21:38:29.133Z,11.60
2023-03-25T21:53:32.247Z,10.57
2023-03-25T22:08:37.814Z,10.06
2023-03-25T22:23:41.317Z,9.83
2023-03-25T22:38:48.417Z,12.00
2023-03-25T22:53:51.212Z,11.71
2023-03-25T23:08:57.747Z,10.52
2023-03-25T23:24:07.819Z,9.90
2023-03-25T23:39:15.373Z,11.71
2023-03-25T23:54:18.355Z,10.78
